Time;durP1;ratioP1;P1;durP2;ratioP2;P2;SDS_P1;SDS_P2;PMS_P1;PMS_P2;Temp;Humidity;BMP_temperature;BMP_pressure;BME280_temperature;BME280_humidity;BME280_pressure;Samples;Min_cycle;Max_cycle;Signal;HPM_P1;HPM_P2
2023/11/27 00:01:08;;;;;;;4.73;3.60;;;5.20;99.90;;;;;;5028168;28;20198;-85
2023/11/27 00:03:34;;;;;;;4.30;3.80;;;5.00;99.90;;;;;;5044460;28;20200;-85
2023/11/27 00:06:00;;;;;;;4.78;4.28;;;5.10;99.90;;;;;;5030285;28;20185;-85
2023/11/27 00:08:25;;;;;;;3.73;3.40;;;5.20;99.90;;;;;;5027943;28;20192;-85
2023/11/27 00:10:51;;;;;;;4.40;4.00;;;4.70;99.90;;;;;;5043013;28;20261;-86
2023/11/27 00:13:16;;;;;;;4.30;3.87;;;4.50;99.90;;;;;;5030453;28;20215;-85
2023/11/27 00:15:42;;;;;;;4.33;3.93;;;4.70;99.90;;;;;;5028178;28;20468;-85
2023/11/27 00:18:07;;;;;;;3.80;3.50;;;5.10;99.90;;;;;;5041415;28;20192;-85
2023/11/27 00:20:33;;;;;;;5.30;3.90;;;4.70;99.90;;;;;;5024058;28;20185;-85
2023/11/27 00:22:58;;;;;;;5.40;4.00;;;4.80;99.90;;;;;;5038801;28;20186;-85
2023/11/27 00:25:25;;;;;;;4.63;3.70;;;4.70;99.90;;;;;;5022246;28;20182;-85
2023/11/27 00:27:51;;;;;;;4.50;3.38;;;4.50;99.90;;;;;;5039759;28;20197;-85
2023/11/27 00:30:16;;;;;;;4.50;3.90;;;4.70;99.90;;;;;;5021338;28;20213;-85
2023/11/27 00:32:42;;;;;;;5.30;3.80;;;5.00;99.90;;;;;;5025306;28;20246;-85
2023/11/27 00:35:08;;;;;;;3.90;3.50;;;4.40;99.90;;;;;;5026307;28;20209;-85
2023/11/27 00:37:33;;;;;;;6.07;3.80;;;4.90;99.90;;;;;;5025502;28;20197;-86
2023/11/27 00:39:59;;;;;;;5.10;3.90;;;4.80;99.90;;;;;;5025217;28;20488;-85
2023/11/27 00:42:24;;;;;;;3.93;3.53;;;4.40;99.90;;;;;;5041884;28;20227;-86
2023/11/27 00:44:50;;;;;;;4.27;3.60;;;4.80;99.90;;;;;;5025766;28;20223;-86
2023/11/27 00:47:15;;;;;;;4.43;3.70;;;4.30;99.90;;;;;;5026053;28;20186;-85
2023/11/27 00:49:41;;;;;;;4.60;3.57;;;4.60;99.90;;;;;;5039428;28;20196;-86
2023/11/27 00:52:07;;;;;;;4.00;3.60;;;4.40;99.90;;;;;;5024233;28;20198;-85
2023/11/27 00:54:33;;;;;;;6.77;3.50;;;4.20;99.90;;;;;;5037081;28;20200;-85
2023/11/27 00:56:58;;;;;;;4.40;3.58;;;4.60;99.90;;;;;;5038864;28;20455;-85
2023/11/27 00:59:24;;;;;;;4.60;3.87;;;4.60;99.90;;;;;;5038596;28;20184;-86
2023/11/27 01:01:49;;;;;;;4.47;3.60;;;4.70;99.90;;;;;;5036316;28;20180;-85
2023/11/27 01:04:15;;;;;;;5.87;3.93;;;4.30;99.90;;;;;;5038486;28;20271;-86
2023/11/27 01:06:42;;;;;;;7.33;4.03;;;4.50;99.90;;;;;;5037580;28;20200;-86
2023/11/27 01:09:08;;;;;;;5.65;3.90;;;4.40;99.90;;;;;;5039020;28;20188;-85
2023/11/27 01:11:33;;;;;;;4.80;3.78;;;4.10;99.90;;;;;;5028421;28;20189;-85
2023/11/27 01:14:00;;;;;;;4.30;3.90;;;4.30;99.90;;;;;;5025321;28;20210;-85
2023/11/27 01:16:25;;;;;;;4.10;3.70;;;4.40;99.90;;;;;;5022240;28;20201;-85
2023/11/27 01:18:51;;;;;;;4.63;3.60;;;4.40;99.90;;;;;;5038339;28;20772;-85
2023/11/27 01:21:17;;;;;;;7.30;3.77;;;4.10;99.90;;;;;;5017812;28;20182;-85
2023/11/27 01:23:43;;;;;;;4.10;3.70;;;4.50;99.90;;;;;;5025428;28;20257;-85
2023/11/27 01:26:08;;;;;;;4.23;3.80;;;4.60;99.90;;;;;;5018859;28;20195;-85
2023/11/27 01:28:36;;;;;;;4.20;3.50;;;4.60;99.90;;;;;;5037316;28;20196;-85
2023/11/27 01:31:03;;;;;;;5.70;4.20;;;4.40;99.90;;;;;;5021255;28;20189;-85
2023/11/27 01:33:29;;;;;;;4.20;3.25;;;4.60;99.90;;;;;;5018678;28;20218;-85
2023/11/27 01:35:54;;;;;;;4.27;3.37;;;4.30;99.90;;;;;;5037773;28;20606;-85
2023/11/27 01:38:20;;;;;;;4.60;3.50;;;4.30;99.90;;;;;;5020123;28;20194;-85
2023/11/27 01:40:45;;;;;;;4.50;3.23;;;4.40;99.90;;;;;;5013515;28;20189;-86
2023/11/27 01:43:15;;;;;;;4.90;4.17;;;4.40;99.90;;;;;;5020799;28;20209;-85
2023/11/27 01:45:41;;;;;;;5.15;3.70;;;4.20;99.90;;;;;;5019894;28;20183;-85
2023/11/27 01:48:07;;;;;;;4.25;3.70;;;4.50;99.90;;;;;;5019460;28;20196;-85
2023/11/27 01:50:33;;;;;;;4.00;3.53;;;4.20;99.90;;;;;;5017948;28;20186;-85
2023/11/27 01:53:00;;;;;;;5.30;4.27;;;4.20;99.90;;;;;;5021323;28;20219;-85
2023/11/27 01:55:28;;;;;;;3.60;3.30;;;4.00;99.90;;;;;;5024347;28;20168;-86
2023/11/27 01:57:54;;;;;;;5.03;3.72;;;4.60;99.90;;;;;;5042563;28;20188;-86
2023/11/27 02:00:21;;;;;;;4.20;3.80;;;4.20;99.90;;;;;;5036844;28;20177;-86
2023/11/27 02:02:49;;;;;;;4.50;3.72;;;4.30;99.90;;;;;;5024733;28;20279;-85
2023/11/27 02:05:15;;;;;;;3.47;3.17;;;4.20;99.90;;;;;;5022622;28;20187;-85
2023/11/27 02:07:42;;;;;;;4.80;3.70;;;4.30;99.90;;;;;;5026074;28;20191;-85
2023/11/27 02:10:08;;;;;;;3.67;3.38;;;4.60;99.90;;;;;;5044891;28;21185;-85
2023/11/27 02:12:34;;;;;;;5.93;3.45;;;4.40;99.90;;;;;;5041900;28;20252;-85
2023/11/27 02:14:59;;;;;;;4.97;3.50;;;4.30;99.90;;;;;;5023275;28;20194;-85
2023/11/27 02:17:25;;;;;;;3.30;2.87;;;4.80;99.90;;;;;;5025402;28;20209;-85
2023/11/27 02:19:50;;;;;;;4.20;3.47;;;4.70;99.90;;;;;;5044621;28;20256;-85
2023/11/27 02:22:16;;;;;;;3.90;3.30;;;4.80;99.90;;;;;;5023192;28;20189;-85
2023/11/27 02:24:42;;;;;;;3.73;3.10;;;4.70;99.90;;;;;;5020177;28;20205;-85
2023/11/27 02:27:07;;;;;;;3.75;3.10;;;4.40;99.90;;;;;;5026585;28;20208;-85
2023/11/27 02:29:33;;;;;;;3.40;3.10;;;4.50;99.90;;;;;;5024713;28;20185;-85
2023/11/27 02:32:01;;;;;;;2.97;2.70;;;4.50;99.90;;;;;;5026155;28;20193;-85
2023/11/27 02:34:27;;;;;;;3.05;2.75;;;4.40;99.90;;;;;;5029102;28;20245;-85
2023/11/27 02:36:52;;;;;;;4.40;3.43;;;4.40;99.90;;;;;;5042633;28;20210;-85
2023/11/27 02:39:18;;;;;;;3.70;3.40;;;4.70;99.90;;;;;;5038307;28;20211;-86
2023/11/27 02:41:43;;;;;;;3.37;2.97;;;4.60;99.90;;;;;;5027836;28;20190;-85
2023/11/27 02:44:09;;;;;;;4.13;3.00;;;4.90;99.90;;;;;;5042172;28;20277;-85
2023/11/27 02:46:35;;;;;;;3.87;2.83;;;4.50;99.90;;;;;;5030178;28;20189;-85
2023/11/27 02:49:01;;;;;;;2.90;2.60;;;4.80;99.90;;;;;;5024507;28;20284;-85
2023/11/27 02:51:27;;;;;;;4.55;2.80;;;4.60;99.90;;;;;;5039649;28;20448;-85
2023/11/27 02:53:52;;;;;;;3.40;2.83;;;4.60;99.90;;;;;;5039354;28;20303;-85
2023/11/27 02:56:18;;;;;;;2.97;2.77;;;5.10;99.90;;;;;;5028480;28;20192;-85
2023/11/27 02:58:44;;;;;;;3.07;2.77;;;4.70;99.90;;;;;;5027202;28;20191;-85
2023/11/27 03:01:10;;;;;;;3.77;2.87;;;4.90;99.90;;;;;;5022770;28;20812;-85
2023/11/27 03:03:37;;;;;;;2.78;2.22;;;4.50;99.90;;;;;;5023275;28;20209;-85
2023/11/27 03:06:03;;;;;;;3.60;2.60;;;4.70;99.90;;;;;;5022793;28;20187;-85
2023/11/27 03:08:29;;;;;;;4.00;3.60;;;4.70;99.90;;;;;;5040122;28;20615;-85
2023/11/27 03:10:56;;;;;;;3.53;2.50;;;4.60;99.90;;;;;;5043185;28;20196;-85
2023/11/27 03:13:23;;;;;;;2.75;2.47;;;4.70;99.90;;;;;;5031520;28;20217;-86
2023/11/27 03:15:49;;;;;;;2.83;2.45;;;5.20;99.90;;;;;;5036262;28;20188;-85
2023/11/27 03:18:14;;;;;;;2.90;2.70;;;5.10;99.90;;;;;;5031444;28;20204;-85
2023/11/27 03:20:40;;;;;;;2.17;2.00;;;5.20;99.90;;;;;;5019657;28;20531;-85
2023/11/27 03:23:05;;;;;;;3.00;2.70;;;4.90;99.90;;;;;;5040005;28;20557;-85
2023/11/27 03:25:31;;;;;;;2.60;2.40;;;4.80;99.90;;;;;;5039530;28;20180;-85
2023/11/27 03:27:56;;;;;;;3.50;2.53;;;4.90;99.90;;;;;;5022321;28;20192;-85
2023/11/27 03:30:22;;;;;;;3.13;2.83;;;4.80;99.90;;;;;;5021905;28;20180;-85
2023/11/27 03:32:50;;;;;;;3.40;2.50;;;4.70;99.90;;;;;;5042047;28;20236;-85
2023/11/27 03:35:15;;;;;;;2.53;2.30;;;4.80;99.90;;;;;;5023047;28;20197;-85
2023/11/27 03:37:41;;;;;;;4.30;2.43;;;4.70;99.90;;;;;;5038485;22;20233;-87
2023/11/27 03:40:07;;;;;;;3.70;2.80;;;4.80;99.90;;;;;;5016837;28;20205;-87
2023/11/27 03:42:32;;;;;;;3.00;2.75;;;4.80;99.90;;;;;;5018372;28;20272;-88
2023/11/27 03:44:59;;;;;;;2.80;2.60;;;4.80;99.90;;;;;;5050307;28;20221;-87
2023/11/27 03:47:24;;;;;;;2.55;2.30;;;5.10;99.90;;;;;;5017069;28;20174;-87
2023/11/27 03:49:50;;;;;;;2.60;2.40;;;4.80;99.90;;;;;;5003001;28;20628;-86
2023/11/27 03:52:15;;;;;;;2.17;2.07;;;4.70;99.90;;;;;;4995640;28;20188;-87
2023/11/27 03:54:41;;;;;;;4.73;2.90;;;4.80;99.90;;;;;;4997961;28;20209;-86
2023/11/27 03:57:06;;;;;;;2.47;2.27;;;5.10;99.90;;;;;;4998673;28;20205;-86
2023/11/27 03:59:32;;;;;;;3.30;1.90;;;5.00;99.90;;;;;;4994693;28;20186;-86
2023/11/27 04:01:58;;;;;;;2.27;2.07;;;4.60;99.90;;;;;;4998531;28;20190;-86
2023/11/27 04:04:24;;;;;;;2.47;2.20;;;4.90;99.90;;;;;;5003308;28;20746;-86
2023/11/27 04:06:49;;;;;;;2.90;2.10;;;4.90;99.90;;;;;;4996830;28;20501;-86
2023/11/27 04:09:18;;;;;;;2.13;1.93;;;4.90;99.90;;;;;;5013527;28;20186;-86
2023/11/27 04:11:44;;;;;;;2.45;2.25;;;5.00;99.90;;;;;;4999155;28;20257;-86
2023/11/27 04:14:09;;;;;;;2.90;2.70;;;4.90;99.90;;;;;;4991759;28;20314;-86
2023/11/27 04:16:35;;;;;;;2.13;2.03;;;4.90;99.90;;;;;;5001109;28;20202;-85
2023/11/27 04:19:00;;;;;;;2.73;2.53;;;4.60;99.90;;;;;;5017583;28;20204;-86
2023/11/27 04:21:26;;;;;;;3.63;2.30;;;4.80;99.90;;;;;;5012890;28;20687;-86
2023/11/27 04:23:51;;;;;;;3.13;2.30;;;5.30;99.90;;;;;;5000609;28;20217;-88
2023/11/27 04:26:21;;;;;;;2.50;2.30;;;4.80;99.90;;;;;;4992567;28;20357;-89
2023/11/27 04:28:47;;;;;;;3.20;2.78;;;5.20;99.90;;;;;;5010718;28;20245;-85
2023/11/27 04:31:13;;;;;;;2.47;2.27;;;4.90;99.90;;;;;;4995204;28;20195;-85
2023/11/27 04:33:39;;;;;;;2.70;2.50;;;5.10;99.90;;;;;;4996764;28;20209;-88
2023/11/27 04:36:05;;;;;;;2.47;2.27;;;5.00;99.90;;;;;;4995764;28;20267;-90
2023/11/27 04:38:30;;;;;;;6.07;3.03;;;4.70;99.90;;;;;;4997712;28;20259;-88
2023/11/27 04:40:56;;;;;;;3.00;2.27;;;4.60;99.90;;;;;;5013042;28;20592;-88
2023/11/27 04:43:23;;;;;;;2.80;2.60;;;4.80;99.90;;;;;;4996500;28;20262;-92
2023/11/27 04:45:48;;;;;;;3.00;2.60;;;4.50;99.90;;;;;;4999496;28;20195;-91
2023/11/27 04:48:14;;;;;;;2.53;2.30;;;4.50;99.90;;;;;;4997962;28;20262;-93
2023/11/27 04:50:39;;;;;;;2.67;2.47;;;4.70;99.90;;;;;;5008410;28;20213;-94
2023/11/27 04:53:05;;;;;;;3.33;2.30;;;4.80;99.90;;;;;;5003872;28;20228;-93
2023/11/27 04:55:32;;;;;;;2.60;2.40;;;4.70;99.90;;;;;;5000029;28;20178;-90
2023/11/27 04:57:58;;;;;;;9.40;3.03;;;4.40;99.90;;;;;;4992738;28;20971;-91
2023/11/27 05:00:23;;;;;;;2.57;2.33;;;4.60;99.90;;;;;;5003903;28;20215;-86
2023/11/27 05:02:49;;;;;;;2.53;2.23;;;;;;;;;;5014216;28;20209;-91
2023/11/27 05:05:15;;;;;;;2.90;2.40;;;;;;;;;;5053149;28;20174;-91
2023/11/27 05:07:41;;;;;;;3.08;2.42;;;;;;;;;;5024610;28;20455;-91
2023/11/27 05:10:07;;;;;;;2.90;2.47;;;4.60;99.90;;;;;;5001689;28;20181;-86
2023/11/27 05:12:34;;;;;;;2.40;2.20;;;4.50;99.90;;;;;;5001320;28;20212;-85
2023/11/27 05:15:00;;;;;;;2.58;2.05;;;4.40;99.90;;;;;;4994140;28;20466;-86
2023/11/27 05:17:25;;;;;;;4.55;3.40;;;4.40;99.90;;;;;;4996230;28;20182;-86
2023/11/27 05:19:51;;;;;;;3.20;2.50;;;4.60;99.90;;;;;;5018662;28;20185;-86
2023/11/27 05:22:16;;;;;;;3.10;1.93;;;4.50;99.90;;;;;;5019268;28;20191;-86
2023/11/27 05:24:42;;;;;;;3.80;2.50;;;4.50;99.90;;;;;;5018743;28;20202;-87
2023/11/27 05:27:08;;;;;;;4.03;2.70;;;4.60;99.90;;;;;;5011312;28;20549;-86
2023/11/27 05:29:34;;;;;;;3.80;2.63;;;4.90;99.90;;;;;;5008668;28;20443;-87
2023/11/27 05:32:07;;;;;;;2.40;2.20;;;4.80;99.90;;;;;;5004205;28;20183;-86
2023/11/27 05:34:33;;;;;;;3.20;2.90;;;4.50;99.90;;;;;;5009974;28;20531;-86
2023/11/27 05:36:58;;;;;;;3.67;2.17;;;4.60;99.90;;;;;;5016361;28;20251;-85
2023/11/27 05:39:24;;;;;;;3.10;2.40;;;4.40;99.90;;;;;;5002429;28;20432;-86
2023/11/27 05:41:49;;;;;;;2.90;2.60;;;4.40;99.90;;;;;;5004439;28;20253;-86
2023/11/27 05:44:17;;;;;;;2.93;2.50;;;4.20;99.90;;;;;;5002601;28;20217;-86
2023/11/27 05:46:43;;;;;;;2.90;2.60;;;4.50;99.90;;;;;;5001859;28;20200;-86
2023/11/27 05:49:09;;;;;;;2.47;2.28;;;4.60;99.90;;;;;;5002713;28;20184;-86
2023/11/27 05:51:39;;;;;;;2.83;2.63;;;4.30;99.90;;;;;;4998553;28;20212;-86
2023/11/27 05:54:09;;;;;;;4.57;2.63;;;4.70;99.90;;;;;;5031713;28;20213;-87
2023/11/27 05:56:34;;;;;;;3.78;2.67;;;4.50;99.90;;;;;;5001360;28;20197;-86
2023/11/27 05:59:00;;;;;;;4.00;2.60;;;4.50;99.90;;;;;;5002770;28;20193;-86
2023/11/27 06:01:25;;;;;;;4.63;2.33;;;4.60;99.90;;;;;;5009401;28;20195;-86
2023/11/27 06:03:51;;;;;;;3.30;2.70;;;4.60;99.90;;;;;;5018785;28;20599;-88
2023/11/27 06:06:16;;;;;;;3.53;2.10;;;4.40;99.90;;;;;;4999566;28;20192;-87
2023/11/27 06:08:43;;;;;;;6.73;3.20;;;4.90;99.90;;;;;;5067963;22;20236;-92
2023/11/27 06:11:12;;;;;;;3.72;2.88;;;5.00;99.90;;;;;;5056385;28;20199;-89
2023/11/27 06:13:38;;;;;;;4.13;2.85;;;4.50;99.90;;;;;;5058221;28;20223;-90
2023/11/27 06:16:04;;;;;;;3.90;2.90;;;4.50;99.90;;;;;;5063152;28;20196;-89
2023/11/27 06:21:53;;;;;;;4.07;2.53;;;;;;;;;;5016765;28;20184;-89
2023/11/27 06:29:22;;;;;;;3.20;2.50;;;4.50;99.90;;;;;;5056017;28;20217;-88
2023/11/27 06:31:48;;;;;;;3.83;2.93;;;4.60;99.90;;;;;;5037750;28;20196;-88
2023/11/27 06:34:14;;;;;;;3.90;2.65;;;4.20;99.90;;;;;;5061526;28;20474;-90
2023/11/27 06:36:40;;;;;;;5.18;2.55;;;4.90;99.90;;;;;;5056590;28;20183;-88
2023/11/27 06:39:08;;;;;;;3.60;2.80;;;4.70;99.90;;;;;;5043893;28;20234;-88
2023/11/27 06:41:34;;;;;;;3.70;2.60;;;4.50;99.90;;;;;;5038728;28;20449;-88
2023/11/27 06:44:03;;;;;;;3.15;2.70;;;5.00;99.90;;;;;;5036444;28;20300;-87
2023/11/27 06:46:29;;;;;;;2.65;2.40;;;4.60;99.90;;;;;;5060851;28;20712;-88
2023/11/27 06:48:54;;;;;;;4.13;2.37;;;5.00;99.90;;;;;;5035361;28;20189;-88
2023/11/27 06:51:21;;;;;;;3.40;3.10;;;4.50;99.90;;;;;;5037102;28;20201;-89
2023/11/27 06:53:47;;;;;;;4.50;3.70;;;5.20;99.90;;;;;;5034937;28;20220;-90
2023/11/27 06:56:13;;;;;;;3.70;3.03;;;4.70;99.90;;;;;;5045112;28;20204;-88
2023/11/27 06:58:39;;;;;;;3.03;2.65;;;4.50;99.90;;;;;;5033897;28;20643;-89
2023/11/27 07:01:13;;;;;;;2.87;2.57;;;4.60;99.90;;;;;;5032978;28;20283;-88
2023/11/27 07:03:40;;;;;;;3.95;3.55;;;4.90;99.90;;;;;;5035583;28;20215;-84
2023/11/27 07:06:06;;;;;;;6.07;3.40;;;5.10;99.90;;;;;;5073417;28;20185;-83
2023/11/27 07:08:34;;;;;;;4.25;3.30;;;4.70;99.90;;;;;;5056821;28;20192;-83
2023/11/27 07:11:00;;;;;;;3.25;2.80;;;5.40;99.90;;;;;;5057334;28;20255;-83
2023/11/27 07:13:27;;;;;;;5.00;3.03;;;5.20;99.90;;;;;;5052264;28;20278;-84
2023/11/27 07:15:53;;;;;;;5.40;3.97;;;;;;;;;;5055594;28;20547;-83
2023/11/27 07:18:18;;;;;;;8.07;4.20;;;4.90;99.90;;;;;;5059658;28;20196;-84
2023/11/27 07:20:45;;;;;;;7.47;4.00;;;5.10;99.90;;;;;;5055357;28;20178;-84
2023/11/27 07:23:12;;;;;;;4.47;4.07;;;;;;;;;;5073458;28;20214;-84
2023/11/27 07:25:37;;;;;;;6.70;4.50;;;5.00;99.90;;;;;;5053583;28;20192;-84
2023/11/27 07:28:04;;;;;;;4.00;3.17;;;4.80;99.90;;;;;;5054563;28;20206;-84
2023/11/27 07:30:31;;;;;;;8.25;4.32;;;5.10;99.90;;;;;;5038113;28;20238;-84
2023/11/27 07:32:58;;;;;;;3.95;3.30;;;5.10;99.90;;;;;;5056438;28;20225;-84
2023/11/27 07:35:24;;;;;;;4.35;3.45;;;5.50;99.90;;;;;;5061709;28;20173;-85
2023/11/27 07:37:50;;;;;;;7.38;3.55;;;5.20;99.90;;;;;;5057224;28;20198;-83
2023/11/27 07:40:16;;;;;;;5.27;3.60;;;5.30;99.90;;;;;;5055715;28;20253;-84
2023/11/27 07:42:43;;;;;;;3.87;3.50;;;;;;;;;;5054727;28;20165;-84
2023/11/27 07:45:11;;;;;;;8.10;3.75;;;5.30;99.90;;;;;;5055125;28;20205;-84
2023/11/27 07:47:40;;;;;;;3.65;3.25;;;5.40;99.90;;;;;;5055355;28;20185;-84
2023/11/27 07:50:12;;;;;;;4.30;3.90;;;4.70;99.90;;;;;;5041731;28;20181;-84
2023/11/27 07:52:37;;;;;;;4.55;3.15;;;5.30;99.90;;;;;;5056586;28;20209;-84
2023/11/27 07:55:04;;;;;;;3.90;3.47;;;6.10;99.90;;;;;;5041249;28;20209;-84
2023/11/27 07:57:32;;;;;;;4.53;3.58;;;5.40;99.90;;;;;;5041458;28;20223;-84
2023/11/27 08:00:11;;;;;;;3.95;3.53;;;5.40;99.90;;;;;;5058850;28;20181;-84
2023/11/27 08:02:43;;;;;;;5.15;3.22;;;5.40;99.90;;;;;;5043079;28;20192;-84
2023/11/27 08:05:09;;;;;;;4.25;3.10;;;6.00;99.90;;;;;;5075897;28;20209;-84
2023/11/27 08:07:38;;;;;;;17.27;6.40;;;5.80;99.90;;;;;;5042936;28;20176;-84
2023/11/27 08:10:08;;;;;;;6.78;3.67;;;5.80;99.90;;;;;;5056695;28;20508;-85
2023/11/27 08:12:38;;;;;;;4.20;3.20;;;5.80;99.90;;;;;;5061308;28;20211;-84
2023/11/27 08:15:08;;;;;;;5.88;4.75;;;5.90;99.90;;;;;;5047793;28;20201;-85
2023/11/27 08:17:33;;;;;;;4.70;3.45;;;5.80;99.90;;;;;;5074664;28;20181;-84
2023/11/27 08:20:00;;;;;;;3.80;3.40;;;6.00;99.90;;;;;;5059421;28;20190;-84
2023/11/27 08:22:27;;;;;;;4.47;3.83;;;;;;;;;;5027117;28;20669;-83
2023/11/27 08:27:29;;;;;;;5.32;3.63;;;;;;;;;;5119045;22;20222;-84
2023/11/27 08:29:56;;;;;;;3.95;3.10;;;6.00;99.90;;;;;;5040668;28;20168;-84
2023/11/27 08:32:22;;;;;;;5.30;3.45;;;5.50;99.90;;;;;;5038916;28;20245;-84
2023/11/27 08:34:49;;;;;;;3.87;3.33;;;5.90;99.90;;;;;;5040741;28;20218;-84
2023/11/27 08:37:16;;;;;;;5.32;3.38;;;;;;;;;;5040200;28;20177;-84
2023/11/27 08:39:43;;;;;;;5.25;3.67;;;6.20;99.90;;;;;;5043868;28;20185;-83
2023/11/27 08:42:09;;;;;;;6.45;3.97;;;6.10;99.90;;;;;;5042963;28;20174;-83
2023/11/27 08:44:34;;;;;;;4.87;3.77;;;6.00;99.90;;;;;;5039779;28;20217;-84
2023/11/27 08:47:00;;;;;;;4.97;3.40;;;5.90;99.90;;;;;;5035885;28;20182;-82
2023/11/27 08:49:27;;;;;;;6.10;4.13;;;6.10;99.90;;;;;;5037185;28;20166;-83
2023/11/27 08:51:54;;;;;;;6.68;3.35;;;6.30;99.90;;;;;;5036306;28;20210;-83
2023/11/27 08:54:20;;;;;;;4.70;3.22;;;6.00;99.90;;;;;;5039984;28;20272;-84
2023/11/27 08:56:46;;;;;;;5.20;4.00;;;;;;;;;;5035102;28;20167;-83
2023/11/27 08:59:12;;;;;;;6.53;3.70;;;;;;;;;;5031770;28;20602;-84
2023/11/27 09:01:38;;;;;;;4.10;3.60;;;6.30;99.90;;;;;;5039012;28;20205;-84
2023/11/27 09:04:04;;;;;;;8.47;4.20;;;6.30;99.90;;;;;;5044122;28;20472;-84
2023/11/27 09:06:29;;;;;;;5.23;3.87;;;6.30;99.90;;;;;;5039502;28;20174;-83
2023/11/27 09:08:55;;;;;;;6.33;4.17;;;6.40;99.90;;;;;;5035211;28;20184;-84
2023/11/27 09:11:21;;;;;;;7.78;4.07;;;6.60;99.90;;;;;;5036607;28;20206;-84
2023/11/27 09:13:47;;;;;;;4.30;3.20;;;6.40;99.90;;;;;;5040079;28;20214;-84
2023/11/27 09:16:16;;;;;;;5.13;3.57;;;6.20;99.90;;;;;;5021915;28;20194;-84
2023/11/27 09:18:41;;;;;;;4.50;3.60;;;6.60;99.90;;;;;;5038128;28;20415;-84
2023/11/27 09:21:09;;;;;;;4.00;3.10;;;6.50;99.90;;;;;;5038923;28;20217;-84
2023/11/27 09:23:35;;;;;;;5.40;3.00;;;6.40;99.90;;;;;;5038826;28;20747;-84
2023/11/27 09:26:01;;;;;;;3.15;2.85;;;;;;;;;;5046042;28;20194;-84
2023/11/27 09:28:39;;;;;;;3.63;2.75;;;7.00;99.90;;;;;;5016500;28;20234;-84
2023/11/27 09:31:05;;;;;;;3.53;2.50;;;6.90;99.90;;;;;;5038818;28;20205;-84
2023/11/27 09:33:34;;;;;;;3.05;2.75;;;;;;;;;;5060291;28;20228;-84
2023/11/27 09:36:04;;;;;;;4.03;3.63;;;7.10;99.80;;;;;;5059295;28;20186;-85
2023/11/27 09:38:30;;;;;;;5.85;4.07;;;;;;;;;;5026303;28;20182;-83
2023/11/27 09:40:57;;;;;;;6.97;3.78;;;7.00;99.90;;;;;;5041605;28;20285;-84
2023/11/27 09:43:25;;;;;;;6.38;4.07;;;7.00;99.90;;;;;;5022311;28;20214;-85
2023/11/27 09:45:53;;;;;;;5.55;3.05;;;7.00;99.90;;;;;;5005700;28;20194;-85
2023/11/27 09:48:19;;;;;;;5.20;2.70;;;7.10;99.90;;;;;;5020394;28;20186;-84
2023/11/27 09:50:46;;;;;;;6.30;3.67;;;7.70;99.90;;;;;;5021998;28;20224;-84
2023/11/27 09:53:19;;;;;;;9.55;4.15;;;7.60;99.90;;;;;;5046831;28;20469;-86
2023/11/27 09:55:49;;;;;;;5.20;3.30;;;7.60;99.90;;;;;;5024253;28;20178;-85
2023/11/27 09:58:17;;;;;;;3.05;2.67;;;7.30;99.80;;;;;;5023484;28;20186;-86
2023/11/27 10:00:46;;;;;;;6.30;5.07;;;7.50;99.10;;;;;;5024304;28;20183;-85
2023/11/27 10:03:12;;;;;;;4.78;2.80;;;7.20;99.10;;;;;;5022482;28;20252;-85
2023/11/27 10:05:38;;;;;;;3.60;2.73;;;7.70;99.20;;;;;;5026972;28;20590;-85
2023/11/27 10:08:04;;;;;;;2.97;2.63;;;7.20;98.50;;;;;;5033407;28;20501;-85
2023/11/27 10:10:29;;;;;;;2.90;2.60;;;7.10;98.70;;;;;;5038571;28;20250;-83
2023/11/27 10:13:03;;;;;;;3.00;2.67;;;7.60;98.10;;;;;;5039246;28;20483;-85
2023/11/27 10:15:30;;;;;;;5.43;3.42;;;7.60;98.60;;;;;;5037208;28;20206;-85
2023/11/27 10:17:59;;;;;;;4.45;2.75;;;7.40;98.40;;;;;;5041650;28;20182;-85
2023/11/27 10:20:25;;;;;;;6.65;2.80;;;7.40;98.60;;;;;;5024592;28;20190;-86
2023/11/27 10:22:52;;;;;;;2.63;2.28;;;7.50;97.10;;;;;;5022455;28;20226;-86
2023/11/27 10:25:20;;;;;;;4.03;2.60;;;8.00;97.80;;;;;;5025603;28;20182;-85
2023/11/27 10:27:46;;;;;;;2.30;2.10;;;7.70;97.70;;;;;;5021679;28;20301;-84
2023/11/27 10:30:20;;;;;;;2.13;1.95;;;7.70;97.20;;;;;;5026319;28;20229;-86
2023/11/27 10:32:46;;;;;;;2.05;1.85;;;7.70;96.70;;;;;;5037529;28;20197;-84
2023/11/27 10:35:15;;;;;;;2.28;2.10;;;7.60;96.80;;;;;;5022242;28;20202;-85
2023/11/27 10:37:42;;;;;;;2.10;1.90;;;7.90;96.60;;;;;;5029199;28;20185;-85
2023/11/27 10:40:13;;;;;;;2.20;2.00;;;8.30;97.00;;;;;;5021428;28;20818;-84
2023/11/27 10:42:49;;;;;;;2.35;2.15;;;7.70;97.00;;;;;;5021046;28;20186;-85
2023/11/27 10:45:24;;;;;;;2.80;2.45;;;7.60;96.20;;;;;;5024237;28;20186;-84
2023/11/27 10:47:51;;;;;;;4.32;2.85;;;7.80;95.80;;;;;;5021932;28;20630;-83
2023/11/27 10:50:19;;;;;;;2.65;1.80;;;7.80;95.80;;;;;;5022715;28;20187;-84
2023/11/27 10:52:49;;;;;;;2.20;2.00;;;7.80;95.30;;;;;;5035826;28;20244;-85
2023/11/27 10:55:18;;;;;;;3.38;2.15;;;7.90;95.60;;;;;;5018050;28;20182;-84
2023/11/27 10:57:54;;;;;;;3.05;2.10;;;7.40;95.90;;;;;;5018425;28;20174;-86
2023/11/27 11:00:29;;;;;;;1.90;1.67;;;7.40;95.60;;;;;;5026956;28;20189;-85
2023/11/27 11:03:09;;;;;;;2.35;2.15;;;7.50;95.30;;;;;;5033623;28;20178;-85
2023/11/27 11:05:50;;;;;;;2.60;2.30;;;7.70;95.90;;;;;;5050160;28;20200;-85
2023/11/27 11:08:26;;;;;;;2.33;2.00;;;7.70;95.70;;;;;;5019696;28;20668;-84
2023/11/27 11:10:53;;;;;;;5.03;2.58;;;8.10;95.70;;;;;;5025013;28;20391;-84
2023/11/27 11:13:20;;;;;;;4.68;2.85;;;8.10;95.30;;;;;;5020927;28;20211;-85
2023/11/27 11:16:14;;;;;;;7.45;2.88;;;8.60;95.10;;;;;;5021578;28;20213;-86
2023/11/27 11:19:00;;;;;;;3.53;2.80;;;8.10;94.40;;;;;;5021569;28;20198;-84
2023/11/27 11:22:10;;;;;;;4.80;2.38;;;8.50;94.80;;;;;;5020208;28;20644;-84
2023/11/27 11:24:46;;;;;;;2.40;2.20;;;8.10;94.60;;;;;;4954280;28;20616;-85
2023/11/27 11:27:24;;;;;;;2.50;1.98;;;8.20;94.60;;;;;;5008520;28;20204;-85
2023/11/27 11:29:57;;;;;;;2.30;2.10;;;8.20;94.80;;;;;;5018023;28;20680;-86
2023/11/27 11:32:28;;;;;;;3.17;2.67;;;7.80;93.90;;;;;;5039642;28;20178;-85
2023/11/27 11:34:58;;;;;;;2.40;2.03;;;8.20;94.30;;;;;;5025289;28;20229;-84
2023/11/27 11:37:26;;;;;;;2.63;2.20;;;8.60;94.40;;;;;;5031614;28;20205;-85
2023/11/27 11:39:53;;;;;;;2.22;1.90;;;8.60;94.20;;;;;;5033091;28;20193;-85
2023/11/27 11:42:29;;;;;;;4.35;2.40;;;8.40;94.50;;;;;;5055107;28;20225;-85
2023/11/27 11:45:33;;;;;;;2.38;2.17;;;8.20;94.00;;;;;;5028299;28;20232;-84
2023/11/27 11:48:00;;;;;;;2.63;2.42;;;8.10;94.30;;;;;;5037275;28;20185;-84
2023/11/27 11:50:29;;;;;;;5.28;2.10;;;8.30;94.40;;;;;;5020967;28;20186;-85
2023/11/27 11:53:10;;;;;;;13.95;3.35;;;7.90;94.20;;;;;;5021554;28;20214;-84
2023/11/27 11:55:39;;;;;;;3.40;1.85;;;8.00;94.70;;;;;;5025202;28;20198;-84
2023/11/27 11:58:22;;;;;;;6.72;1.98;;;7.70;94.80;;;;;;5019536;28;20217;-85
2023/11/27 12:01:08;;;;;;;4.18;2.20;;;7.80;94.80;;;;;;5036973;28;20186;-85
2023/11/27 12:03:35;;;;;;;4.13;1.77;;;7.80;94.50;;;;;;5016429;28;20228;-85
2023/11/27 12:06:03;;;;;;;9.55;2.40;;;9.40;95.30;;;;;;5023971;28;20682;-85
2023/11/27 12:08:30;;;;;;;4.65;1.90;;;8.00;94.80;;;;;;5018584;28;20186;-85
2023/11/27 12:10:57;;;;;;;3.28;2.00;;;7.90;94.60;;;;;;5019861;28;20821;-84
2023/11/27 12:13:33;;;;;;;4.72;1.80;;;7.80;94.40;;;;;;5017844;28;20261;-85
2023/11/27 12:16:04;;;;;;;1.98;1.77;;;8.20;94.90;;;;;;5007700;28;20182;-83
2023/11/27 12:18:30;;;;;;;3.20;1.50;;;8.30;94.40;;;;;;5018517;28;20213;-84
2023/11/27 12:20:56;;;;;;;3.63;1.80;;;8.20;94.40;;;;;;5020260;28;20274;-85
2023/11/27 12:23:21;;;;;;;1.70;1.52;;;7.50;94.40;;;;;;5019210;28;20240;-85
2023/11/27 12:25:47;;;;;;;2.10;1.60;;;8.00;94.80;;;;;;5017772;28;20265;-86
2023/11/27 12:28:13;;;;;;;1.90;1.50;;;7.60;94.70;;;;;;5018502;28;20672;-85
2023/11/27 12:30:39;;;;;;;4.18;2.80;;;7.60;94.70;;;;;;5019202;28;20190;-86
2023/11/27 12:33:07;;;;;;;12.77;3.85;;;7.50;94.40;;;;;;5005767;28;20218;-84
2023/11/27 12:35:33;;;;;;;2.47;1.40;;;7.80;95.00;;;;;;5001038;28;20191;-83
2023/11/27 12:38:04;;;;;;;2.10;1.70;;;8.80;95.90;;;;;;5028012;28;20337;-84
2023/11/27 12:40:35;;;;;;;3.15;1.70;;;7.70;95.40;;;;;;5030313;28;20224;-83
2023/11/27 12:43:06;;;;;;;2.38;1.30;;;7.60;95.20;;;;;;5046997;28;20182;-84
2023/11/27 12:45:33;;;;;;;1.40;1.30;;;7.30;95.40;;;;;;5044679;28;20265;-84
2023/11/27 12:47:59;;;;;;;1.40;1.30;;;;;;;;;;5211887;23;20213;-88
2023/11/27 12:50:29;;;;;;;1.38;1.27;;;7.40;96.00;;;;;;5036251;28;20234;-85
2023/11/27 12:53:07;;;;;;;1.23;0.90;;;7.20;96.70;;;;;;5004830;28;20245;-86
2023/11/27 12:55:47;;;;;;;1.30;1.20;;;9.30;98.20;;;;;;5032446;28;20197;-84
2023/11/27 12:58:17;;;;;;;1.20;1.10;;;;;;;;;;5019531;28;20192;-84
2023/11/27 13:03:22;;;;;;;1.50;1.33;;;7.00;99.50;;;;;;5059078;28;20302;-84
2023/11/27 13:05:52;;;;;;;2.85;1.10;;;7.00;99.90;;;;;;5023455;28;20262;-84
2023/11/27 13:08:23;;;;;;;1.30;1.20;;;7.40;99.90;;;;;;5031651;28;20182;-85
2023/11/27 13:10:50;;;;;;;1.80;1.20;;;7.00;99.90;;;;;;5030282;28;20250;-85
2023/11/27 13:13:20;;;;;;;2.15;1.20;;;7.30;99.90;;;;;;5008651;28;20245;-85
2023/11/27 13:15:59;;;;;;;1.23;0.82;;;7.70;99.90;;;;;;5039497;28;20190;-84
2023/11/27 13:18:32;;;;;;;1.35;1.15;;;6.70;99.90;;;;;;5034257;28;20275;-84